Time;durP1;ratioP1;P1;durP2;ratioP2;P2;SDS_P1;SDS_P2;PMS_P1;PMS_P2;Temp;Humidity;BMP_temperature;BMP_pressure;BME280_temperature;BME280_humidity;BME280_pressure;Samples;Min_cycle;Max_cycle;Signal;HPM_P1;HPM_P2
2022/09/22 00:01:32;;;;;;;14.53;9.15;;;;;;;6.50;100.00;100384.81;1679633;85;21465;-71
2022/09/22 00:04:05;;;;;;;15.60;9.43;;;;;;;6.50;100.00;100381.44;1678603;85;21022;-70
2022/09/22 00:06:37;;;;;;;13.93;9.28;;;;;;;6.49;100.00;100376.77;1684632;84;21054;-69
2022/09/22 00:09:09;;;;;;;13.70;8.85;;;;;;;6.42;100.00;100377.36;1685114;84;21058;-70
2022/09/22 00:11:44;;;;;;;13.38;9.15;;;;;;;6.33;100.00;100384.48;1662814;84;21472;-70
2022/09/22 00:14:15;;;;;;;13.13;9.38;;;;;;;6.26;100.00;100387.63;1673056;85;21552;-70
2022/09/22 00:16:46;;;;;;;13.32;8.80;;;;;;;6.21;100.00;100385.22;1678246;83;21081;-70
2022/09/22 00:19:21;;;;;;;14.90;9.75;;;;;;;6.18;100.00;100385.73;1663583;85;21071;-71
2022/09/22 00:21:49;;;;;;;16.07;9.60;;;;;;;6.15;100.00;100386.66;1670110;85;21057;-71
2022/09/22 00:24:20;;;;;;;15.90;9.25;;;;;;;6.21;100.00;100380.55;1662328;84;21075;-70
2022/09/22 00:26:47;;;;;;;16.07;9.10;;;;;;;6.25;100.00;100382.59;1664919;83;21105;-70
2022/09/22 00:29:16;;;;;;;14.80;10.15;;;;;;;6.22;100.00;100382.21;1674207;85;21082;-71
2022/09/22 00:31:44;;;;;;;16.25;9.43;;;;;;;6.25;100.00;100385.14;1657265;84;21043;-70
2022/09/22 00:34:18;;;;;;;15.03;9.00;;;;;;;6.27;100.00;100394.89;1669835;84;21111;-71
2022/09/22 00:36:46;;;;;;;16.32;10.10;;;;;;;6.31;100.00;100404.97;1670448;85;21083;-70
2022/09/22 00:39:14;;;;;;;14.30;9.20;;;;;;;6.37;100.00;100411.64;1671478;85;21062;-70
2022/09/22 00:41:45;;;;;;;18.20;9.53;;;;;;;6.40;100.00;100411.53;1671553;84;21148;-69
2022/09/22 00:44:33;;;;;;;15.88;9.20;;;;;;;6.37;100.00;100410.36;1679780;84;21111;-70
2022/09/22 00:47:17;;;;;;;13.05;8.30;;;;;;;6.35;100.00;100412.95;1675239;83;21540;-70
2022/09/22 00:49:58;;;;;;;13.68;8.73;;;;;;;6.36;100.00;100411.23;1681617;84;21074;-70
2022/09/22 00:52:58;;;;;;;12.03;8.65;;;;;;;6.33;100.00;100410.05;1666301;84;21091;-70
2022/09/22 00:55:31;;;;;;;12.35;8.63;;;;;;;6.34;100.00;100411.70;1674834;84;21080;-71
2022/09/22 00:57:59;;;;;;;13.88;8.75;;;;;;;6.28;100.00;100414.44;1666719;85;21131;-71
2022/09/22 01:00:26;;;;;;;13.48;9.30;;;;;;;6.21;100.00;100419.72;1673802;85;21071;-71
2022/09/22 01:02:57;;;;;;;13.68;9.08;;;;;;;6.16;100.00;100422.86;1673483;84;21146;-70
2022/09/22 01:05:26;;;;;;;16.10;9.53;;;;;;;6.13;100.00;100425.48;1681869;85;21083;-71
2022/09/22 01:07:55;;;;;;;15.08;9.20;;;;;;;6.10;100.00;100421.72;1677645;85;21565;-71
2022/09/22 01:10:23;;;;;;;14.98;9.68;;;;;;;6.04;100.00;100418.05;1678640;85;21079;-70
2022/09/22 01:13:07;;;;;;;13.68;9.23;;;;;;;5.97;100.00;100418.66;1665954;83;21042;-69
2022/09/22 01:16:04;;;;;;;14.50;9.25;;;;;;;5.97;100.00;100412.72;1671687;85;21084;-71
2022/09/22 01:19:02;;;;;;;14.43;8.75;;;;;;;5.88;100.00;100414.20;1674505;84;21148;-71
2022/09/22 01:22:10;;;;;;;13.40;8.45;;;;;;;5.89;100.00;100415.44;1679294;85;21107;-70
2022/09/22 01:24:55;;;;;;;12.85;8.98;;;;;;;5.96;100.00;100418.70;1671121;84;21103;-70
2022/09/22 01:27:33;;;;;;;14.18;8.65;;;;;;;6.07;100.00;100412.88;1668753;84;21602;-70
2022/09/22 01:30:20;;;;;;;13.62;8.65;;;;;;;6.04;100.00;100419.33;1666561;83;21091;-69
2022/09/22 01:33:01;;;;;;;16.57;9.13;;;;;;;6.06;100.00;100426.96;1678265;85;21112;-70
2022/09/22 01:35:43;;;;;;;12.98;8.70;;;;;;;6.03;100.00;100421.95;1678247;84;21083;-69
2022/09/22 01:38:18;;;;;;;12.73;8.30;;;;;;;6.02;100.00;100421.09;1680020;85;21043;-70
2022/09/22 01:41:12;;;;;;;14.03;8.35;;;;;;;6.01;100.00;100426.64;1672143;83;21043;-70
2022/09/22 01:43:55;;;;;;;12.65;8.45;;;;;;;5.99;100.00;100429.67;1675579;83;21079;-71
2022/09/22 01:46:43;;;;;;;14.00;8.83;;;;;;;6.00;100.00;100441.59;1645388;86;21071;-71
2022/09/22 01:49:13;;;;;;;15.05;8.73;;;;;;;5.96;100.00;100443.83;1673755;85;21080;-70
2022/09/22 01:51:47;;;;;;;12.85;8.45;;;;;;;6.04;100.00;100437.22;1684597;85;21556;-70
2022/09/22 01:54:25;;;;;;;13.88;9.43;;;;;;;6.10;100.00;100438.33;1674615;84;21055;-71
2022/09/22 01:56:57;;;;;;;13.72;8.68;;;;;;;6.07;100.00;100442.70;1656331;85;21047;-71
2022/09/22 01:59:28;;;;;;;14.05;9.00;;;;;;;6.01;100.00;100437.31;1677971;84;21718;-71
2022/09/22 02:02:03;;;;;;;11.88;8.28;;;;;;;6.03;100.00;100439.83;1678438;85;21055;-70
2022/09/22 02:04:45;;;;;;;13.80;8.45;;;;;;;6.04;100.00;100438.49;1672063;83;21025;-71
2022/09/22 02:07:23;;;;;;;16.07;8.30;;;;;;;6.06;100.00;100437.18;1663378;85;21033;-70
2022/09/22 02:09:54;;;;;;;13.32;8.20;;;;;;;6.02;100.00;100446.64;1670833;84;21051;-71
2022/09/22 02:12:21;;;;;;;12.55;8.00;;;;;;;5.91;100.00;100450.73;1671426;85;21126;-70
2022/09/22 02:14:49;;;;;;;11.70;7.83;;;;;;;5.83;100.00;100447.09;1665138;84;21095;-71
2022/09/22 02:17:16;;;;;;;12.98;8.00;;;;;;;5.76;100.00;100454.52;1662949;84;21097;-70
2022/09/22 02:19:43;;;;;;;11.45;8.40;;;;;;;5.58;100.00;100453.25;1675650;85;21067;-70
2022/09/22 02:22:11;;;;;;;11.97;8.05;;;;;;;5.52;100.00;100457.23;1674562;85;21059;-71
2022/09/22 02:24:41;;;;;;;11.70;8.50;;;;;;;5.58;100.00;100458.36;1656703;84;21622;-70
2022/09/22 02:27:13;;;;;;;10.93;8.00;;;;;;;5.60;100.00;100451.95;1671423;84;21080;-71
2022/09/22 02:29:45;;;;;;;11.10;7.85;;;;;;;5.66;100.00;100453.08;1661244;85;21040;-70
2022/09/22 02:32:15;;;;;;;12.85;8.03;;;;;;;5.63;100.00;100457.80;1680048;83;22164;-70
2022/09/22 02:34:45;;;;;;;14.35;8.65;;;;;;;5.69;100.00;100452.98;1673180;84;21166;-70
2022/09/22 02:37:35;;;;;;;12.58;8.53;;;;;;;5.71;100.00;100455.06;1666855;85;21150;-71
2022/09/22 02:40:29;;;;;;;13.18;8.48;;;;;;;5.75;100.00;100452.00;1668048;83;21052;-69
2022/09/22 02:43:17;;;;;;;14.53;8.10;;;;;;;5.58;100.00;100463.91;1667466;84;21424;-70
2022/09/22 02:46:10;;;;;;;13.22;8.53;;;;;;;5.48;100.00;100473.50;1666650;84;21607;-70
2022/09/22 02:48:50;;;;;;;10.72;7.80;;;;;;;5.40;100.00;100471.13;1652961;84;21084;-69
2022/09/22 02:51:17;;;;;;;13.50;8.43;;;;;;;5.38;100.00;100465.22;1678728;85;21142;-69
2022/09/22 02:53:44;;;;;;;12.90;8.50;;;;;;;5.35;100.00;100468.27;1674205;85;21103;-70
2022/09/22 02:56:11;;;;;;;12.33;8.55;;;;;;;5.29;100.00;100472.23;1678860;85;21052;-70
2022/09/22 02:58:38;;;;;;;13.60;9.00;;;;;;;5.20;100.00;100472.02;1664110;84;21099;-69
2022/09/22 03:01:08;;;;;;;12.98;8.63;;;;;;;5.04;100.00;100477.06;1661348;84;21049;-69
2022/09/22 03:03:37;;;;;;;13.15;8.48;;;;;;;4.97;100.00;100470.81;1677470;84;21063;-69
2022/09/22 03:06:05;;;;;;;13.50;8.75;;;;;;;4.81;100.00;100460.54;1670470;85;21559;-70
2022/09/22 03:08:32;;;;;;;14.13;7.97;;;;;;;4.81;100.00;100459.27;1681836;84;21098;-69
2022/09/22 03:10:59;;;;;;;12.03;8.43;;;;;;;4.78;100.00;100451.22;1676156;84;21075;-70
2022/09/22 03:13:26;;;;;;;12.37;8.68;;;;;;;4.69;100.00;100452.70;1673776;84;21113;-70
2022/09/22 03:15:53;;;;;;;12.78;8.38;;;;;;;4.70;100.00;100447.16;1672295;84;21147;-69
2022/09/22 03:18:20;;;;;;;14.85;8.75;;;;;;;4.72;100.00;100441.59;1665284;84;21070;-70
2022/09/22 03:20:47;;;;;;;13.20;9.25;;;;;;;4.76;100.00;100439.38;1670214;84;21091;-70
2022/09/22 03:23:14;;;;;;;17.17;9.43;;;;;;;4.81;100.00;100433.77;1681250;84;21681;-70
2022/09/22 03:25:41;;;;;;;14.53;9.08;;;;;;;4.85;100.00;100433.27;1674805;84;22172;-69
2022/09/22 03:28:09;;;;;;;13.72;9.23;;;;;;;4.90;100.00;100432.27;1653761;84;21129;-69
2022/09/22 03:30:39;;;;;;;14.30;9.13;;;;;;;4.92;100.00;100434.80;1658930;85;21067;-70
2022/09/22 03:33:06;;;;;;;14.40;8.73;;;;;;;4.88;100.00;100440.84;1661475;84;21066;-69
2022/09/22 03:35:35;;;;;;;12.88;8.93;;;;;;;4.84;100.00;100445.16;1670728;84;21606;-70
2022/09/22 03:38:01;;;;;;;17.00;9.20;;;;;;;4.90;100.00;100442.47;1669616;85;21332;-69
2022/09/22 03:40:29;;;;;;;15.28;9.40;;;;;;;4.96;100.00;100444.06;1660449;84;21043;-70
2022/09/22 03:42:55;;;;;;;15.08;9.38;;;;;;;4.94;100.00;100448.35;1673736;84;21029;-69
2022/09/22 03:45:22;;;;;;;14.95;9.10;;;;;;;4.97;100.00;100451.69;1653800;84;21673;-69
2022/09/22 03:47:53;;;;;;;15.15;9.48;;;;;;;5.19;100.00;100449.91;1665631;85;21414;-69
2022/09/22 03:50:19;;;;;;;13.28;9.25;;;;;;;5.04;100.00;100459.20;1674429;83;21047;-70
2022/09/22 03:52:46;;;;;;;16.85;10.00;;;;;;;4.92;100.00;100454.76;1678249;85;21087;-68
2022/09/22 03:55:13;;;;;;;17.35;9.58;;;;;;;4.92;100.00;100460.30;1685898;85;21523;-69
2022/09/22 03:57:42;;;;;;;14.75;9.40;;;;;;;4.89;100.00;100450.19;1658321;84;21110;-69
2022/09/22 04:00:12;;;;;;;15.10;9.53;;;;;;;4.94;100.00;100450.46;1675758;84;21610;-69
2022/09/22 04:02:40;;;;;;;17.87;9.93;;;;;;;4.99;100.00;100444.00;1675774;84;21040;-69
2022/09/22 04:05:08;;;;;;;14.15;9.70;;;;;;;5.05;100.00;100441.31;1671119;85;21146;-69
2022/09/22 04:07:36;;;;;;;16.23;10.10;;;;;;;5.13;100.00;100447.50;1671439;85;21090;-70
2022/09/22 04:10:06;;;;;;;14.58;9.78;;;;;;;5.16;100.00;100443.61;1667022;85;21099;-69
2022/09/22 04:12:36;;;;;;;16.85;9.88;;;;;;;5.13;100.00;100441.98;1674601;84;21085;-69
2022/09/22 04:15:05;;;;;;;15.50;10.00;;;;;;;5.18;100.00;100435.48;1670277;85;21051;-69
2022/09/22 04:17:32;;;;;;;17.92;10.60;;;;;;;5.25;100.00;100447.25;1664679;83;21591;-69
2022/09/22 04:19:59;;;;;;;16.25;10.38;;;;;;;5.33;100.00;100445.77;1688567;83;21044;-69
2022/09/22 04:22:26;;;;;;;19.12;10.28;;;;;;;5.35;100.00;100455.50;1701240;83;21164;-69
2022/09/22 04:24:53;;;;;;;17.67;10.05;;;;;;;5.44;100.00;100450.64;1704623;83;21083;-68
2022/09/22 04:27:20;;;;;;;15.93;10.38;;;;;;;5.60;100.00;100447.67;1695474;84;21099;-70
2022/09/22 04:29:47;;;;;;;18.17;11.18;;;;;;;5.74;100.00;100447.78;1712482;83;21063;-69
2022/09/22 04:32:16;;;;;;;16.23;10.53;;;;;;;5.80;100.00;100454.84;1713965;83;21536;-68
2022/09/22 04:34:43;;;;;;;16.77;11.05;;;;;;;5.82;100.00;100459.47;1706981;83;21092;-68
2022/09/22 04:37:12;;;;;;;16.87;10.50;;;;;;;5.91;100.00;100460.12;1716072;83;21063;-69
2022/09/22 04:39:39;;;;;;;15.05;10.10;;;;;;;6.01;100.00;100471.81;1697926;83;21103;-69
2022/09/22 04:42:08;;;;;;;19.67;10.85;;;;;;;6.10;100.00;100475.83;1694068;83;21125;-69
2022/09/22 04:44:35;;;;;;;18.60;10.58;;;;;;;6.12;100.00;100473.63;1684786;83;21078;-69
2022/09/22 04:47:03;;;;;;;21.17;11.78;;;;;;;6.12;100.00;100469.80;1684427;83;21062;-68
2022/09/22 04:49:30;;;;;;;23.00;12.45;;;;;;;6.26;100.00;100471.16;1695110;83;21517;-69
2022/09/22 04:51:58;;;;;;;23.83;13.03;;;;;;;6.31;100.00;100472.72;1715051;83;21094;-69
2022/09/22 04:54:25;;;;;;;19.55;12.95;;;;;;;6.38;100.00;100461.42;1708960;83;21512;-68
2022/09/22 04:56:52;;;;;;;20.48;13.10;;;;;;;6.57;100.00;100458.39;1693234;83;21025;-69
2022/09/22 04:59:19;;;;;;;22.13;13.72;;;;;;;6.73;100.00;100453.64;1700095;83;21115;-69
2022/09/22 05:01:46;;;;;;;21.80;13.80;;;;;;;6.77;100.00;100451.39;1700626;83;21087;-69
2022/09/22 05:04:13;;;;;;;25.32;14.00;;;;;;;6.90;100.00;100457.01;1699492;83;21139;-69
2022/09/22 05:06:41;;;;;;;23.73;13.72;;;;;;;6.95;100.00;100458.97;1707402;83;21105;-69
2022/09/22 05:09:09;;;;;;;22.50;14.25;;;;;;;7.00;100.00;100464.35;1685659;84;21133;-69
2022/09/22 05:11:35;;;;;;;22.20;13.98;;;;;;;6.99;100.00;100456.27;1672936;83;21070;-69
2022/09/22 05:14:04;;;;;;;27.17;14.75;;;;;;;7.06;100.00;100450.54;1713189;83;21817;-69
2022/09/22 05:16:31;;;;;;;25.08;14.83;;;;;;;7.13;100.00;100442.22;1693555;84;21156;-69
2022/09/22 05:18:59;;;;;;;24.90;15.63;;;;;;;7.20;100.00;100447.11;1707870;83;21076;-69
2022/09/22 05:21:27;;;;;;;24.72;14.73;;;;;;;7.33;100.00;100436.03;1706009;83;21699;-69
2022/09/22 05:23:54;;;;;;;24.65;15.83;;;;;;;7.42;100.00;100436.17;1699530;83;21060;-69
2022/09/22 05:26:21;;;;;;;25.37;15.85;;;;;;;7.52;100.00;100437.58;1698536;83;21540;-68
2022/09/22 05:28:50;;;;;;;25.17;16.37;;;;;;;7.64;100.00;100438.88;1704369;83;21091;-69
2022/09/22 05:31:17;;;;;;;26.10;17.17;;;;;;;7.78;100.00;100437.97;1692181;84;21047;-69
2022/09/22 05:33:45;;;;;;;25.40;16.77;;;;;;;7.90;100.00;100436.72;1690641;83;21090;-69
2022/09/22 05:36:12;;;;;;;23.60;15.60;;;;;;;8.07;100.00;100431.45;1700544;83;21155;-70
2022/09/22 05:38:39;;;;;;;21.48;14.70;;;;;;;8.19;100.00;100431.88;1701615;84;21551;-69
2022/09/22 05:41:06;;;;;;;22.48;15.13;;;;;;;8.37;100.00;100429.11;1699607;84;21366;-69
2022/09/22 05:43:36;;;;;;;18.12;13.75;;;;;;;8.50;100.00;100421.83;1682135;84;21997;-69
2022/09/22 05:46:03;;;;;;;17.45;12.88;;;;;;;8.62;100.00;100413.67;1703795;83;21043;-69
2022/09/22 05:48:30;;;;;;;19.37;12.28;;;;;;;8.79;100.00;100421.17;1697744;83;21053;-69
2022/09/22 05:50:57;;;;;;;21.95;13.53;;;;;;;8.92;100.00;100424.96;1700654;83;21547;-69
2022/09/22 05:53:24;;;;;;;19.57;12.03;;;;;;;9.06;100.00;100414.58;1709760;83;21103;-69
2022/09/22 05:55:52;;;;;;;19.52;12.88;;;;;;;9.18;100.00;100410.25;1699304;83;21046;-69
2022/09/22 05:58:19;;;;;;;19.42;12.60;;;;;;;9.30;100.00;100412.32;1696687;84;21047;-69
2022/09/22 06:00:46;;;;;;;19.85;12.68;;;;;;;9.40;100.00;100413.62;1676178;84;21125;-69
2022/09/22 06:03:13;;;;;;;17.57;12.70;;;;;;;9.54;100.00;100414.34;1693216;84;21549;-69
2022/09/22 06:05:40;;;;;;;19.87;12.68;;;;;;;9.69;100.00;100419.73;1704667;83;21137;-68
2022/09/22 06:08:07;;;;;;;18.07;12.88;;;;;;;9.80;100.00;100415.83;1707999;83;21086;-68
2022/09/22 06:10:37;;;;;;;18.82;13.32;;;;;;;9.94;100.00;100406.70;1709659;83;21095;-69
2022/09/22 06:13:09;;;;;;;20.55;13.85;;;;;;;10.09;100.00;100405.19;1703806;83;21047;-69
2022/09/22 06:15:37;;;;;;;22.25;13.90;;;;;;;10.21;100.00;100404.19;1699087;84;21117;-69
2022/09/22 06:18:07;;;;;;;22.13;13.78;;;;;;;10.41;100.00;100416.66;1705978;83;21020;-69
2022/09/22 06:20:35;;;;;;;25.48;15.93;;;;;;;10.52;100.00;100417.03;1703497;83;21098;-68
2022/09/22 06:23:02;;;;;;;21.45;14.58;;;;;;;10.69;100.00;100421.86;1698545;83;21126;-69
2022/09/22 06:25:29;;;;;;;25.17;15.35;;;;;;;10.83;100.00;100422.88;1708275;84;21062;-69
2022/09/22 06:28:05;;;;;;;22.27;13.58;;;;;;;10.97;100.00;100423.53;1696537;83;21109;-69
2022/09/22 06:30:38;;;;;;;22.13;14.20;;;;;;;11.38;100.00;100427.61;1698903;83;21061;-69
2022/09/22 06:33:04;;;;;;;22.58;14.95;;;;;;;11.58;100.00;100427.46;1697011;84;21308;-70
2022/09/22 06:35:37;;;;;;;23.40;14.80;;;;;;;11.45;100.00;100422.98;1687837;84;21072;-69
2022/09/22 06:38:06;;;;;;;24.30;14.60;;;;;;;11.58;100.00;100427.92;1695358;84;21048;-69
2022/09/22 06:40:37;;;;;;;23.07;14.30;;;;;;;11.78;100.00;100428.19;1704122;83;21054;-68
2022/09/22 06:43:10;;;;;;;19.32;14.03;;;;;;;11.95;100.00;100429.97;1684950;84;21039;-69
2022/09/22 06:45:36;;;;;;;18.75;13.83;;;;;;;12.13;100.00;100429.02;1700334;83;21071;-69
2022/09/22 06:48:03;;;;;;;20.70;14.13;;;;;;;12.22;100.00;100436.27;1697736;84;21083;-69
2022/09/22 06:50:31;;;;;;;20.20;14.23;;;;;;;12.37;100.00;100438.98;1695647;83;21074;-68
2022/09/22 06:53:01;;;;;;;19.55;13.13;;;;;;;12.49;100.00;100438.77;1688487;83;21098;-69
2022/09/22 06:55:30;;;;;;;17.60;11.78;;;;;;;12.66;100.00;100428.85;1713492;84;21171;-68
2022/09/22 06:57:57;;;;;;;17.67;12.05;;;;;;;12.82;100.00;100435.67;1686309;83;21548;-69
2022/09/22 07:00:30;;;;;;;14.35;11.05;;;;;;;12.95;100.00;100444.86;1686160;83;21068;-69
2022/09/22 07:03:08;;;;;;;13.45;9.73;;;;;;;13.07;100.00;100456.75;1711902;83;21035;-69
2022/09/22 07:05:36;;;;;;;14.28;10.13;;;;;;;13.23;100.00;100465.31;1706867;82;21028;-69
2022/09/22 07:08:04;;;;;;;13.68;9.55;;;;;;;13.39;100.00;100478.25;1713823;83;21024;-69
2022/09/22 07:10:36;;;;;;;13.20;9.35;;;;;;;13.57;100.00;100488.02;1681604;83;21571;-69
2022/09/22 07:13:00;;;;;;;10.88;9.10;;;;;;;13.70;100.00;100497.20;1705257;82;22905;-69
2022/09/22 07:15:28;;;;;;;10.80;9.28;;;;;;;13.85;100.00;100496.33;1693021;81;21063;-69
2022/09/22 07:17:56;;;;;;;12.07;9.30;;;;;;;13.96;100.00;100510.75;1714080;82;21055;-69
2022/09/22 07:20:24;;;;;;;13.48;9.28;;;;;;;14.09;100.00;100522.53;1700168;83;21088;-69
2022/09/22 07:22:59;;;;;;;11.48;8.43;;;;;;;14.30;100.00;100528.66;1698892;83;21050;-69
2022/09/22 07:25:34;;;;;;;12.20;8.50;;;;;;;14.50;100.00;100533.48;1697264;83;21076;-69
2022/09/22 07:28:03;;;;;;;11.00;8.63;;;;;;;14.66;100.00;100544.23;1696033;82;21101;-69
2022/09/22 07:30:29;;;;;;;11.43;8.63;;;;;;;14.79;100.00;100543.87;1687199;84;21061;-69
2022/09/22 07:33:00;;;;;;;11.35;8.73;;;;;;;14.93;100.00;100555.98;1700696;83;21051;-69
2022/09/22 07:35:27;;;;;;;10.82;8.23;;;;;;;15.15;100.00;100560.20;1705761;82;21075;-69
2022/09/22 07:38:02;;;;;;;11.50;8.90;;;;;;;15.31;100.00;100558.78;1714165;83;21105;-69
2022/09/22 07:40:26;;;;;;;10.55;8.70;;;;;;;15.48;100.00;100566.78;1710895;83;21056;-69
2022/09/22 07:42:53;;;;;;;12.23;8.88;;;;;;;15.59;100.00;100571.28;1699512;83;21047;-69
2022/09/22 07:45:22;;;;;;;12.33;9.25;;;;;;;15.80;100.00;100575.59;1704519;83;21556;-68
2022/09/22 07:50:34;;;;;;;10.10;7.92;;;;;;;16.26;100.00;100573.88;1711143;83;21125;-69
2022/09/22 07:53:03;;;;;;;9.80;8.10;;;;;;;16.56;100.00;100578.73;1702523;83;21058;-68
2022/09/22 07:55:30;;;;;;;11.18;8.48;;;;;;;16.72;100.00;100591.53;1705257;83;21118;-69
2022/09/22 07:57:59;;;;;;;10.82;7.85;;;;;;;16.76;100.00;100585.66;1678858;83;21051;-69
2022/09/22 08:00:35;;;;;;;7.83;7.03;;;;;;;16.96;100.00;100587.73;1709477;83;21055;-69
2022/09/22 08:03:00;;;;;;;9.78;8.00;;;;;;;17.33;100.00;100584.31;1697741;82;21042;-69
2022/09/22 08:05:28;;;;;;;12.25;7.80;;;;;;;17.55;100.00;100591.42;1699516;83;21114;-69
2022/09/22 08:08:01;;;;;;;8.08;7.15;;;;;;;17.77;100.00;100598.03;1695195;83;21035;-69
2022/09/22 08:10:32;;;;;;;8.53;6.70;;;;;;;18.00;100.00;100592.94;1714998;83;21562;-69
2022/09/22 08:12:59;;;;;;;6.47;5.40;;;;;;;17.61;100.00;100611.32;1708311;83;21044;-69
2022/09/22 08:15:26;;;;;;;9.00;6.40;;;;;;;17.77;100.00;100605.84;1713533;83;21060;-68
2022/09/22 08:17:56;;;;;;;8.15;6.40;;;;;;;17.52;100.00;100597.69;1696884;83;21050;-69
2022/09/22 08:20:29;;;;;;;8.18;6.97;;;;;;;17.42;100.00;100591.00;1715300;83;21160;-69
2022/09/22 08:22:56;;;;;;;10.10;7.33;;;;;;;17.40;100.00;100588.16;1703149;82;21049;-68
2022/09/22 08:25:24;;;;;;;10.38;8.00;;;;;;;17.30;100.00;100587.16;1707662;83;21019;-69
2022/09/22 08:27:51;;;;;;;10.55;7.92;;;;;;;17.39;100.00;100576.89;1714051;83;21066;-68
2022/09/22 08:30:18;;;;;;;12.35;8.53;;;;;;;17.50;100.00;100583.09;1697557;82;21016;-68
2022/09/22 08:32:45;;;;;;;13.35;9.45;;;;;;;17.57;100.00;100582.55;1702739;83;21043;-68
2022/09/22 08:35:13;;;;;;;13.72;9.43;;;;;;;17.53;100.00;100580.29;1695284;82;21133;-68
2022/09/22 08:37:42;;;;;;;11.83;8.85;;;;;;;17.90;100.00;100581.06;1698111;83;21546;-68
2022/09/22 08:40:17;;;;;;;8.30;7.15;;;;;;;18.06;100.00;100583.36;1704646;83;21052;-68
2022/09/22 08:42:45;;;;;;;13.25;9.30;;;;;;;18.14;100.00;100585.41;1684954;83;21050;-68
2022/09/22 08:45:35;;;;;;;11.73;8.80;;;;;;;17.46;100.00;100585.11;1714005;83;21617;-69
2022/09/22 08:54:09;;;;;;;14.20;9.63;;;;;;;16.83;100.00;100577.84;1693312;83;21182;-69
2022/09/22 08:56:56;;;;;;;17.70;11.00;;;;;;;16.65;100.00;100572.58;1699581;83;21036;-68
2022/09/22 08:59:50;;;;;;;15.18;10.75;;;;;;;16.86;100.00;100574.19;1627056;84;21111;-69
2022/09/22 09:02:40;;;;;;;14.80;9.80;;;;;;;17.08;100.00;100572.22;1711799;83;21052;-68
2022/09/22 09:05:25;;;;;;;9.13;6.87;;;;;;;17.24;100.00;100575.88;1700367;83;21172;-68
2022/09/22 09:08:41;;;;;;;9.88;7.25;;;;;;;17.49;100.00;100577.55;1709668;83;21535;-68
2022/09/22 09:11:19;;;;;;;11.22;7.72;;;;;;;17.29;100.00;100573.77;1714046;82;21039;-69
2022/09/22 09:14:14;;;;;;;10.72;8.30;;;;;;;16.96;100.00;100573.91;1713751;82;21027;-69
2022/09/22 09:17:19;;;;;;;12.00;7.90;;;;;;;16.90;100.00;100575.16;1677000;83;20983;-70
2022/09/22 09:19:51;;;;;;;11.30;8.78;;;;;;;17.17;100.00;100573.72;1708769;82;21083;-70
2022/09/22 09:22:31;;;;;;;14.43;8.23;;;;;;;17.27;100.00;100572.56;1718338;83;21527;-69
2022/09/22 09:25:07;;;;;;;10.23;7.87;;;;;;;17.39;100.00;100572.17;1720218;83;21558;-70
2022/09/22 09:27:40;;;;;;;11.18;7.80;;;;;;;17.40;100.00;100569.46;1705750;83;21043;-69
2022/09/22 09:30:17;;;;;;;9.85;8.08;;;;;;;17.37;100.00;100583.16;1719824;83;21145;-69
2022/09/22 09:33:03;;;;;;;12.82;10.38;;;;;;;17.35;100.00;100586.34;1717339;83;21102;-69
2022/09/22 09:35:48;;;;;;;16.75;12.10;;;;;;;17.38;100.00;100590.86;1692670;83;21142;-69
2022/09/22 09:38:18;;;;;;;18.55;13.48;;;;;;;17.37;100.00;100594.39;1674928;83;21064;-68
2022/09/22 09:40:53;;;;;;;18.87;13.88;;;;;;;17.32;100.00;100604.78;1720064;82;21038;-69
2022/09/22 09:43:21;;;;;;;;;;;;;;;17.47;100.00;100606.75;1719135;81;21460;-69
2022/09/22 09:46:15;;;;;;;15.60;11.73;;;;;;;17.43;98.51;100614.77;1697499;83;20174;-69
2022/09/22 09:49:20;;;;;;;14.30;11.00;;;;;;;17.46;97.13;100610.28;1687198;84;21148;-69
2022/09/22 09:51:53;;;;;;;19.52;12.10;;;;;;;17.38;97.33;100616.88;1658598;86;21029;-69
2022/09/22 09:54:21;;;;;;;11.57;8.20;;;;;;;17.48;100.00;100614.91;1645418;86;21499;-69
2022/09/22 09:57:11;;;;;;;14.43;9.78;;;;;;;17.56;94.83;100612.62;1663803;84;21089;-69
2022/09/22 10:02:34;;;;;;;13.88;11.55;;;;;;;17.60;97.68;100607.08;1693879;83;21079;-69
2022/09/22 10:05:08;;;;;;;10.90;7.40;;;;;;;17.67;100.00;100609.23;1683647;84;21598;-69
2022/09/22 10:07:48;;;;;;;11.20;8.10;;;;;;;17.54;94.01;100607.99;1707147;83;21088;-69
2022/09/22 10:10:32;;;;;;;10.30;7.72;;;;;;;17.61;95.73;100602.21;1682740;85;21128;-69
2022/09/22 10:13:09;;;;;;;12.55;9.85;;;;;;;17.75;94.22;100607.73;1698792;83;21089;-69
2022/09/22 10:15:39;;;;;;;14.40;10.58;;;;;;;17.65;96.90;100599.41;1684486;83;21055;-69
2022/09/22 10:18:33;;;;;;;13.48;10.38;;;;;;;17.82;99.18;100594.63;1690220;83;21535;-69
2022/09/22 10:21:06;;;;;;;12.03;8.65;;;;;;;17.91;100.00;100591.03;1691098;84;21039;-69
2022/09/22 10:23:34;;;;;;;11.65;9.13;;;;;;;18.08;99.65;100595.80;1702729;83;21084;-69
2022/09/22 10:26:31;;;;;;;13.58;9.60;;;;;;;17.93;97.66;100594.34;1688919;83;21053;-69
2022/09/22 10:29:18;;;;;;;10.98;7.22;;;;;;;17.89;96.94;100602.85;1663215;84;21617;-69
2022/09/22 10:32:14;;;;;;;7.78;6.70;;;;;;;17.99;90.68;100612.12;1687590;83;21630;-70
2022/09/22 10:34:49;;;;;;;10.65;8.60;;;;;;;17.70;93.66;100598.14;1708717;82;21114;-69
2022/09/22 10:37:21;;;;;;;12.93;8.40;;;;;;;17.39;99.65;100595.11;1684479;83;21049;-69
2022/09/22 10:39:53;;;;;;;8.95;7.17;;;;;;;17.45;100.00;100588.64;1694007;83;21575;-69
2022/09/22 10:42:42;;;;;;;9.13;6.53;;;;;;;17.53;100.00;100594.13;1685778;82;21558;-69
2022/09/22 10:45:18;;;;;;;7.50;6.00;;;;;;;17.72;100.00;100593.64;1699148;83;21135;-69
2022/09/22 10:47:56;;;;;;;8.08;6.15;;;;;;;17.84;98.13;100593.70;1695687;83;21028;-69
2022/09/22 10:50:38;;;;;;;10.28;7.55;;;;;;;17.68;94.69;100602.63;1697102;83;21045;-70
2022/09/22 10:53:26;;;;;;;9.80;5.95;;;;;;;17.57;96.35;100588.23;1708588;83;21068;-69
2022/09/22 10:56:12;;;;;;;5.10;3.85;;;;;;;17.69;97.00;100593.03;1707755;83;21099;-69
2022/09/22 10:59:03;;;;;;;4.70;3.67;;;;;;;17.93;92.73;100587.36;1678364;83;21080;-69
2022/09/22 11:01:52;;;;;;;5.62;3.70;;;;;;;18.31;91.59;100571.95;1654267;83;21104;-69
2022/09/22 11:05:01;;;;;;;6.10;3.75;;;;;;;18.58;87.89;100582.05;1695782;84;21200;-69
2022/09/22 11:14:07;;;;;;;4.97;3.12;;;;;;;18.73;81.54;100566.16;1705868;83;21119;-69
2022/09/22 11:17:15;;;;;;;4.37;3.77;;;;;;;19.05;83.61;100564.16;1707865;82;21086;-69
2022/09/22 11:20:05;;;;;;;5.45;3.87;;;;;;;19.00;82.55;100566.66;1702069;83;21024;-69
2022/09/22 11:22:47;;;;;;;6.30;3.67;;;;;;;18.89;84.75;100566.66;1708390;83;21098;-69
2022/09/22 11:25:43;;;;;;;3.72;3.40;;;;;;;18.86;82.65;100566.09;1709430;82;21033;-69
2022/09/22 11:28:33;;;;;;;5.45;4.00;;;;;;;19.21;83.81;100565.42;1706112;82;21087;-69
2022/09/22 11:30:59;;;;;;;5.60;4.55;;;;;;;19.30;86.55;100563.03;1701038;82;21072;-69
2022/09/22 11:34:05;;;;;;;6.75;4.78;;;;;;;19.37;86.54;100564.21;1710575;83;21075;-69
2022/09/22 11:37:26;;;;;;;5.10;4.53;;;;;;;19.16;88.22;100575.86;1679858;83;21139;-69
2022/09/22 11:40:08;;;;;;;6.08;4.85;;;;;;;19.07;88.26;100569.61;1704073;83;21053;-69
2022/09/22 11:42:54;;;;;;;7.05;5.35;;;;;;;18.99;90.26;100566.77;1694176;83;21065;-69
2022/09/22 11:45:46;;;;;;;6.20;5.08;;;;;;;18.79;91.29;100568.32;1711831;83;21508;-69
2022/09/22 11:48:34;;;;;;;5.90;4.95;;;;;;;18.78;92.53;100560.95;1698635;82;21187;-69
2022/09/22 11:51:24;;;;;;;6.47;4.30;;;;;;;18.75;91.29;100560.35;1684565;84;21088;-69
2022/09/22 11:54:14;;;;;;;7.25;4.90;;;;;;;18.88;88.06;100567.62;1715274;82;21079;-69
2022/09/22 11:56:52;;;;;;;5.12;4.62;;;;;;;18.70;91.92;100567.23;1712467;83;21048;-70
2022/09/22 11:59:24;;;;;;;4.80;4.30;;;;;;;18.94;92.16;100568.92;1702926;82;21060;-70
2022/09/22 12:01:54;;;;;;;7.15;4.00;;;;;;;19.19;92.00;100569.94;1710691;83;21084;-70
2022/09/22 12:04:41;;;;;;;4.55;4.03;;;;;;;19.29;90.88;100569.22;1700738;83;21041;-69